sensor_id;sensor_type;location;lat;lon;timestamp;pressure;altitude;pressure_sealevel;temperature;humidity
29839;BME280;18669;53.356;-1.464;2023-09-18T00:02:11;99304.22;;;17.39;100.00
29839;BME280;18669;53.356;-1.464;2023-09-18T00:04:57;99308.59;;;17.40;100.00
29839;BME280;18669;53.356;-1.464;2023-09-18T00:07:42;99308.50;;;17.42;100.00
29839;BME280;18669;53.356;-1.464;2023-09-18T00:10:28;99309.56;;;17.39;100.00
29839;BME280;18669;53.356;-1.464;2023-09-18T00:13:16;99312.13;;;17.41;100.00
29839;BME280;18669;53.356;-1.464;2023-09-18T00:16:01;99304.03;;;17.42;100.00
29839;BME280;18669;53.356;-1.464;2023-09-18T00:18:48;99294.25;;;17.43;100.00
29839;BME280;18669;53.356;-1.464;2023-09-18T00:21:34;99296.56;;;17.48;100.00
29839;BME280;18669;53.356;-1.464;2023-09-18T00:24:19;99293.50;;;17.41;100.00
29839;BME280;18669;53.356;-1.464;2023-09-18T00:27:04;99292.44;;;17.43;100.00
29839;BME280;18669;53.356;-1.464;2023-09-18T00:29:49;99284.38;;;17.45;100.00
29839;BME280;18669;53.356;-1.464;2023-09-18T00:32:34;99284.25;;;17.47;100.00
29839;BME280;18669;53.356;-1.464;2023-09-18T00:35:18;99293.78;;;17.49;100.00
29839;BME280;18669;53.356;-1.464;2023-09-18T00:38:03;99284.03;;;17.50;100.00
29839;BME280;18669;53.356;-1.464;2023-09-18T00:40:48;99267.72;;;17.54;100.00
29839;BME280;18669;53.356;-1.464;2023-09-18T00:43:33;99258.78;;;17.55;100.00
29839;BME280;18669;53.356;-1.464;2023-09-18T00:46:19;99262.19;;;17.57;100.00
29839;BME280;18669;53.356;-1.464;2023-09-18T00:49:04;99255.19;;;17.56;100.00
29839;BME280;18669;53.356;-1.464;2023-09-18T00:51:50;99251.97;;;17.64;100.00
29839;BME280;18669;53.356;-1.464;2023-09-18T00:54:37;99239.41;;;17.66;100.00
29839;BME280;18669;53.356;-1.464;2023-09-18T00:57:23;99236.47;;;17.58;100.00
29839;BME280;18669;53.356;-1.464;2023-09-18T01:00:09;99233.47;;;17.63;100.00
29839;BME280;18669;53.356;-1.464;2023-09-18T01:02:54;99230.19;;;17.59;100.00
29839;BME280;18669;53.356;-1.464;2023-09-18T01:05:38;99233.81;;;17.58;100.00
29839;BME280;18669;53.356;-1.464;2023-09-18T01:08:23;99224.75;;;17.60;100.00
29839;BME280;18669;53.356;-1.464;2023-09-18T01:11:20;99220.13;;;17.75;100.00
29839;BME280;18669;53.356;-1.464;2023-09-18T01:14:20;99217.59;;;17.74;100.00
29839;BME280;18669;53.356;-1.464;2023-09-18T01:17:10;99215.72;;;17.63;100.00
29839;BME280;18669;53.356;-1.464;2023-09-18T01:19:58;99204.44;;;17.59;100.00
29839;BME280;18669;53.356;-1.464;2023-09-18T01:22:43;99206.13;;;17.60;100.00
29839;BME280;18669;53.356;-1.464;2023-09-18T01:25:31;99192.03;;;17.71;100.00
29839;BME280;18669;53.356;-1.464;2023-09-18T01:28:17;99184.75;;;17.62;100.00
29839;BME280;18669;53.356;-1.464;2023-09-18T01:31:02;99176.56;;;17.65;100.00
29839;BME280;18669;53.356;-1.464;2023-09-18T01:33:49;99171.41;;;17.75;100.00
29839;BME280;18669;53.356;-1.464;2023-09-18T01:36:34;99170.97;;;17.68;100.00
29839;BME280;18669;53.356;-1.464;2023-09-18T01:39:20;99157.25;;;17.74;100.00
29839;BME280;18669;53.356;-1.464;2023-09-18T01:42:06;99140.44;;;17.74;100.00
29839;BME280;18669;53.356;-1.464;2023-09-18T01:44:52;99136.91;;;17.73;100.00
29839;BME280;18669;53.356;-1.464;2023-09-18T01:47:37;99132.19;;;17.66;100.00
29839;BME280;18669;53.356;-1.464;2023-09-18T01:50:22;99123.25;;;17.67;100.00
29839;BME280;18669;53.356;-1.464;2023-09-18T01:53:07;99111.75;;;17.66;100.00
29839;BME280;18669;53.356;-1.464;2023-09-18T01:55:52;99109.19;;;17.65;100.00
29839;BME280;18669;53.356;-1.464;2023-09-18T01:58:37;99104.00;;;17.63;100.00
29839;BME280;18669;53.356;-1.464;2023-09-18T02:01:22;99101.44;;;17.62;100.00
29839;BME280;18669;53.356;-1.464;2023-09-18T02:04:07;99094.34;;;17.62;100.00
29839;BME280;18669;53.356;-1.464;2023-09-18T02:06:51;99089.84;;;17.63;100.00
29839;BME280;18669;53.356;-1.464;2023-09-18T02:09:36;99090.59;;;17.65;100.00
29839;BME280;18669;53.356;-1.464;2023-09-18T02:12:21;99081.66;;;17.66;100.00
29839;BME280;18669;53.356;-1.464;2023-09-18T02:15:07;99075.38;;;17.67;100.00
29839;BME280;18669;53.356;-1.464;2023-09-18T02:17:54;99064.22;;;17.62;100.00
29839;BME280;18669;53.356;-1.464;2023-09-18T02:20:40;99055.06;;;17.66;100.00
29839;BME280;18669;53.356;-1.464;2023-09-18T02:23:25;99046.56;;;17.60;100.00
29839;BME280;18669;53.356;-1.464;2023-09-18T02:26:10;99040.28;;;17.62;100.00
29839;BME280;18669;53.356;-1.464;2023-09-18T02:29:01;99040.34;;;17.73;100.00
29839;BME280;18669;53.356;-1.464;2023-09-18T02:31:46;99039.47;;;17.61;100.00
29839;BME280;18669;53.356;-1.464;2023-09-18T02:34:31;99025.28;;;17.60;100.00
29839;BME280;18669;53.356;-1.464;2023-09-18T02:37:15;99027.97;;;17.60;100.00
29839;BME280;18669;53.356;-1.464;2023-09-18T02:40:00;99022.63;;;17.60;100.00
29839;BME280;18669;53.356;-1.464;2023-09-18T02:42:45;99026.16;;;17.61;100.00
29839;BME280;18669;53.356;-1.464;2023-09-18T02:45:30;99010.31;;;17.59;100.00
29839;BME280;18669;53.356;-1.464;2023-09-18T02:48:15;99001.50;;;17.59;100.00
29839;BME280;18669;53.356;-1.464;2023-09-18T02:51:01;98995.94;;;17.62;100.00
29839;BME280;18669;53.356;-1.464;2023-09-18T02:53:46;98994.47;;;17.58;100.00
29839;BME280;18669;53.356;-1.464;2023-09-18T02:56:31;98983.84;;;17.58;100.00
29839;BME280;18669;53.356;-1.464;2023-09-18T02:59:16;98982.03;;;17.58;100.00
29839;BME280;18669;53.356;-1.464;2023-09-18T03:02:01;98979.34;;;17.58;100.00
29839;BME280;18669;53.356;-1.464;2023-09-18T03:04:46;98982.16;;;17.57;100.00
29839;BME280;18669;53.356;-1.464;2023-09-18T03:07:31;98974.19;;;17.57;100.00
29839;BME280;18669;53.356;-1.464;2023-09-18T03:10:16;98971.63;;;17.55;100.00
29839;BME280;18669;53.356;-1.464;2023-09-18T03:13:03;98973.22;;;17.58;100.00
29839;BME280;18669;53.356;-1.464;2023-09-18T03:15:49;98966.19;;;17.57;100.00
29839;BME280;18669;53.356;-1.464;2023-09-18T03:18:34;98958.09;;;17.58;100.00
29839;BME280;18669;53.356;-1.464;2023-09-18T03:21:18;98956.53;;;17.56;100.00
29839;BME280;18669;53.356;-1.464;2023-09-18T03:24:04;98949.38;;;17.56;100.00
29839;BME280;18669;53.356;-1.464;2023-09-18T03:26:49;98948.41;;;17.57;100.00
29839;BME280;18669;53.356;-1.464;2023-09-18T03:29:34;98960.50;;;17.62;100.00
29839;BME280;18669;53.356;-1.464;2023-09-18T03:32:18;98948.41;;;17.57;100.00
29839;BME280;18669;53.356;-1.464;2023-09-18T03:35:04;98944.69;;;17.60;100.00
29839;BME280;18669;53.356;-1.464;2023-09-18T03:37:51;98928.50;;;17.63;100.00
29839;BME280;18669;53.356;-1.464;2023-09-18T03:40:35;98929.53;;;17.49;100.00
29839;BME280;18669;53.356;-1.464;2023-09-18T03:43:20;98927.75;;;17.50;100.00
29839;BME280;18669;53.356;-1.464;2023-09-18T03:46:07;98920.84;;;17.58;100.00
29839;BME280;18669;53.356;-1.464;2023-09-18T03:48:52;98920.50;;;17.52;100.00
29839;BME280;18669;53.356;-1.464;2023-09-18T03:51:37;98927.16;;;17.46;100.00
29839;BME280;18669;53.356;-1.464;2023-09-18T03:54:21;98926.50;;;17.42;100.00
29839;BME280;18669;53.356;-1.464;2023-09-18T03:57:06;98919.16;;;17.46;100.00
29839;BME280;18669;53.356;-1.464;2023-09-18T03:59:51;98908.41;;;17.48;100.00
29839;BME280;18669;53.356;-1.464;2023-09-18T04:02:36;98912.75;;;17.49;100.00
29839;BME280;18669;53.356;-1.464;2023-09-18T04:05:21;98904.53;;;17.52;100.00
29839;BME280;18669;53.356;-1.464;2023-09-18T04:08:06;98902.13;;;17.49;100.00
29839;BME280;18669;53.356;-1.464;2023-09-18T04:10:51;98898.72;;;17.47;100.00
29839;BME280;18669;53.356;-1.464;2023-09-18T04:13:40;98895.34;;;17.44;100.00
29839;BME280;18669;53.356;-1.464;2023-09-18T04:16:25;98890.66;;;17.48;100.00
29839;BME280;18669;53.356;-1.464;2023-09-18T04:19:11;98874.31;;;17.41;100.00
29839;BME280;18669;53.356;-1.464;2023-09-18T04:21:56;98882.53;;;17.38;100.00
29839;BME280;18669;53.356;-1.464;2023-09-18T04:24:41;98887.97;;;17.37;100.00
29839;BME280;18669;53.356;-1.464;2023-09-18T04:27:25;98888.78;;;17.37;100.00
29839;BME280;18669;53.356;-1.464;2023-09-18T04:30:10;98904.75;;;17.37;100.00
29839;BME280;18669;53.356;-1.464;2023-09-18T04:32:55;98895.22;;;17.35;100.00
29839;BME280;18669;53.356;-1.464;2023-09-18T04:35:40;98895.81;;;17.38;100.00
29839;BME280;18669;53.356;-1.464;2023-09-18T04:38:25;98901.34;;;17.35;100.00
29839;BME280;18669;53.356;-1.464;2023-09-18T04:41:10;98904.00;;;17.35;100.00
29839;BME280;18669;53.356;-1.464;2023-09-18T04:43:59;98898.69;;;17.35;100.00
29839;BME280;18669;53.356;-1.464;2023-09-18T04:46:44;98885.53;;;17.34;100.00
29839;BME280;18669;53.356;-1.464;2023-09-18T04:49:29;98884.69;;;17.33;100.00
29839;BME280;18669;53.356;-1.464;2023-09-18T04:52:13;98886.28;;;17.36;100.00
29839;BME280;18669;53.356;-1.464;2023-09-18T04:54:58;98886.38;;;17.34;100.00
29839;BME280;18669;53.356;-1.464;2023-09-18T04:57:43;98881.91;;;17.35;100.00
29839;BME280;18669;53.356;-1.464;2023-09-18T05:00:29;98869.69;;;17.32;100.00
29839;BME280;18669;53.356;-1.464;2023-09-18T05:03:14;98862.69;;;17.31;100.00
29839;BME280;18669;53.356;-1.464;2023-09-18T05:05:59;98866.34;;;17.30;100.00
29839;BME280;18669;53.356;-1.464;2023-09-18T05:08:44;98866.44;;;17.28;100.00
29839;BME280;18669;53.356;-1.464;2023-09-18T05:11:28;98862.09;;;17.27;100.00
29839;BME280;18669;53.356;-1.464;2023-09-18T05:14:14;98860.28;;;17.28;100.00
29839;BME280;18669;53.356;-1.464;2023-09-18T05:17:00;98848.94;;;17.26;100.00
29839;BME280;18669;53.356;-1.464;2023-09-18T05:19:45;98849.91;;;17.25;100.00
29839;BME280;18669;53.356;-1.464;2023-09-18T05:22:30;98844.81;;;17.22;100.00
29839;BME280;18669;53.356;-1.464;2023-09-18T05:25:15;98838.78;;;17.20;100.00
29839;BME280;18669;53.356;-1.464;2023-09-18T05:28:00;98850.72;;;17.25;100.00
29839;BME280;18669;53.356;-1.464;2023-09-18T05:30:46;98845.28;;;17.15;100.00
29839;BME280;18669;53.356;-1.464;2023-09-18T05:33:30;98848.03;;;17.14;100.00
29839;BME280;18669;53.356;-1.464;2023-09-18T05:36:16;98839.97;;;17.15;100.00
29839;BME280;18669;53.356;-1.464;2023-09-18T05:39:01;98836.72;;;17.12;100.00
29839;BME280;18669;53.356;-1.464;2023-09-18T05:41:50;98841.94;;;17.25;100.00
29839;BME280;18669;53.356;-1.464;2023-09-18T05:44:35;98838.75;;;17.08;100.00
29839;BME280;18669;53.356;-1.464;2023-09-18T05:47:23;98840.78;;;17.05;100.00
29839;BME280;18669;53.356;-1.464;2023-09-18T05:50:09;98825.47;;;17.08;100.00
29839;BME280;18669;53.356;-1.464;2023-09-18T05:52:59;98848.38;;;16.98;100.00
29839;BME280;18669;53.356;-1.464;2023-09-18T05:55:45;98845.03;;;16.83;100.00
29839;BME280;18669;53.356;-1.464;2023-09-18T05:58:33;98848.94;;;16.90;100.00
29839;BME280;18669;53.356;-1.464;2023-09-18T06:01:20;98849.13;;;16.76;100.00
29839;BME280;18669;53.356;-1.464;2023-09-18T06:04:05;98841.72;;;16.68;100.00
29839;BME280;18669;53.356;-1.464;2023-09-18T06:06:49;98844.38;;;16.68;100.00
29839;BME280;18669;53.356;-1.464;2023-09-18T06:09:35;98847.50;;;16.62;100.00
29839;BME280;18669;53.356;-1.464;2023-09-18T06:12:20;98845.78;;;16.61;100.00
29839;BME280;18669;53.356;-1.464;2023-09-18T06:15:09;98848.50;;;16.72;100.00
29839;BME280;18669;53.356;-1.464;2023-09-18T06:17:54;98844.44;;;16.55;100.00
29839;BME280;18669;53.356;-1.464;2023-09-18T06:20:39;98842.38;;;16.47;100.00
29839;BME280;18669;53.356;-1.464;2023-09-18T06:23:25;98842.38;;;16.47;100.00
29839;BME280;18669;53.356;-1.464;2023-09-18T06:26:10;98840.69;;;16.46;100.00
29839;BME280;18669;53.356;-1.464;2023-09-18T06:28:55;98852.03;;;16.48;100.00
29839;BME280;18669;53.356;-1.464;2023-09-18T06:31:40;98840.78;;;16.45;100.00
29839;BME280;18669;53.356;-1.464;2023-09-18T06:34:25;98848.75;;;16.45;100.00
29839;BME280;18669;53.356;-1.464;2023-09-18T06:37:10;98841.88;;;16.42;100.00
29839;BME280;18669;53.356;-1.464;2023-09-18T06:39:57;98833.91;;;16.42;100.00
29839;BME280;18669;53.356;-1.464;2023-09-18T06:42:43;98831.84;;;16.46;100.00
29839;BME280;18669;53.356;-1.464;2023-09-18T06:45:28;98822.78;;;16.37;100.00
29839;BME280;18669;53.356;-1.464;2023-09-18T06:48:13;98823.28;;;16.42;100.00
29839;BME280;18669;53.356;-1.464;2023-09-18T06:51:00;98810.69;;;16.57;100.00
29839;BME280;18669;53.356;-1.464;2023-09-18T06:53:44;98816.50;;;16.38;100.00
29839;BME280;18669;53.356;-1.464;2023-09-18T06:56:29;98816.88;;;16.45;100.00
29839;BME280;18669;53.356;-1.464;2023-09-18T06:59:16;98816.66;;;16.48;100.00
29839;BME280;18669;53.356;-1.464;2023-09-18T07:02:01;98815.69;;;16.49;100.00
29839;BME280;18669;53.356;-1.464;2023-09-18T07:04:46;98817.41;;;16.50;100.00
29839;BME280;18669;53.356;-1.464;2023-09-18T07:07:31;98813.03;;;16.49;100.00
29839;BME280;18669;53.356;-1.464;2023-09-18T07:10:16;98801.38;;;16.51;100.00
29839;BME280;18669;53.356;-1.464;2023-09-18T07:13:01;98810.69;;;16.57;100.00
29839;BME280;18669;53.356;-1.464;2023-09-18T07:15:47;98813.09;;;16.60;100.00
29839;BME280;18669;53.356;-1.464;2023-09-18T07:18:33;98809.25;;;16.64;100.00
29839;BME280;18669;53.356;-1.464;2023-09-18T07:21:17;98808.75;;;16.59;100.00
29839;BME280;18669;53.356;-1.464;2023-09-18T07:24:03;98806.47;;;16.66;100.00
29839;BME280;18669;53.356;-1.464;2023-09-18T07:26:48;98802.78;;;16.80;100.00
29839;BME280;18669;53.356;-1.464;2023-09-18T07:29:32;98801.22;;;16.77;100.00
29839;BME280;18669;53.356;-1.464;2023-09-18T07:32:18;98791.53;;;16.76;100.00
29839;BME280;18669;53.356;-1.464;2023-09-18T07:35:06;98791.69;;;16.86;100.00
29839;BME280;18669;53.356;-1.464;2023-09-18T07:37:51;98789.81;;;16.99;100.00
29839;BME280;18669;53.356;-1.464;2023-09-18T07:40:36;98786.59;;;16.83;100.00
29839;BME280;18669;53.356;-1.464;2023-09-18T07:43:21;98785.16;;;16.79;100.00
29839;BME280;18669;53.356;-1.464;2023-09-18T07:46:06;98774.06;;;16.74;100.00
29839;BME280;18669;53.356;-1.464;2023-09-18T07:48:51;98773.56;;;16.68;100.00
29839;BME280;18669;53.356;-1.464;2023-09-18T07:51:36;98766.41;;;16.69;100.00
29839;BME280;18669;53.356;-1.464;2023-09-18T07:54:21;98764.50;;;16.71;100.00
29839;BME280;18669;53.356;-1.464;2023-09-18T07:57:06;98759.13;;;16.95;100.00
29839;BME280;18669;53.356;-1.464;2023-09-18T07:59:53;98748.78;;;17.04;100.00
29839;BME280;18669;53.356;-1.464;2023-09-18T08:02:39;98742.88;;;17.23;100.00
29839;BME280;18669;53.356;-1.464;2023-09-18T08:05:24;98747.06;;;17.59;100.00
29839;BME280;18669;53.356;-1.464;2023-09-18T08:08:12;98745.88;;;18.08;100.00
29839;BME280;18669;53.356;-1.464;2023-09-18T08:10:57;98738.75;;;18.62;100.00
29839;BME280;18669;53.356;-1.464;2023-09-18T08:13:42;98741.38;;;19.26;100.00
29839;BME280;18669;53.356;-1.464;2023-09-18T08:16:27;98729.75;;;19.77;100.00
29839;BME280;18669;53.356;-1.464;2023-09-18T08:19:16;98733.56;;;20.63;100.00
29839;BME280;18669;53.356;-1.464;2023-09-18T08:22:01;98731.41;;;20.96;100.00
29839;BME280;18669;53.356;-1.464;2023-09-18T08:24:47;98719.31;;;21.30;100.00
29839;BME280;18669;53.356;-1.464;2023-09-18T08:27:32;98716.53;;;21.50;100.00
29839;BME280;18669;53.356;-1.464;2023-09-18T08:30:17;98708.31;;;22.07;100.00
29839;BME280;18669;53.356;-1.464;2023-09-18T08:33:05;98711.84;;;21.89;100.00
29839;BME280;18669;53.356;-1.464;2023-09-18T08:35:50;98717.59;;;21.67;100.00
29839;BME280;18669;53.356;-1.464;2023-09-18T08:38:35;98715.31;;;21.72;100.00
29839;BME280;18669;53.356;-1.464;2023-09-18T08:41:20;98712.81;;;21.33;100.00
29839;BME280;18669;53.356;-1.464;2023-09-18T08:44:07;98721.88;;;21.22;100.00
29839;BME280;18669;53.356;-1.464;2023-09-18T08:46:54;98704.38;;;21.65;100.00
29839;BME280;18669;53.356;-1.464;2023-09-18T08:49:40;98705.94;;;22.04;100.00
29839;BME280;18669;53.356;-1.464;2023-09-18T08:52:26;98697.44;;;22.98;100.00
29839;BME280;18669;53.356;-1.464;2023-09-18T08:55:11;98704.94;;;23.55;100.00
29839;BME280;18669;53.356;-1.464;2023-09-18T08:57:57;98696.97;;;24.79;93.74
29839;BME280;18669;53.356;-1.464;2023-09-18T09:00:43;98711.78;;;24.58;87.79
29839;BME280;18669;53.356;-1.464;2023-09-18T09:03:28;98694.81;;;24.41;100.00
29839;BME280;18669;53.356;-1.464;2023-09-18T09:06:13;98686.56;;;24.60;99.25
29839;BME280;18669;53.356;-1.464;2023-09-18T09:08:58;98677.00;;;25.61;73.21
29839;BME280;18669;53.356;-1.464;2023-09-18T09:11:50;98683.22;;;25.94;73.23
29839;BME280;18669;53.356;-1.464;2023-09-18T09:14:35;98682.25;;;25.55;71.16
29839;BME280;18669;53.356;-1.464;2023-09-18T09:17:19;98678.13;;;24.87;72.28
29839;BME280;18669;53.356;-1.464;2023-09-18T09:20:11;98680.34;;;25.32;79.76
29839;BME280;18669;53.356;-1.464;2023-09-18T09:23:04;98680.59;;;25.06;80.05
29839;BME280;18669;53.356;-1.464;2023-09-18T09:25:51;98671.25;;;24.68;76.37
29839;BME280;18669;53.356;-1.464;2023-09-18T09:28:36;98668.22;;;25.68;70.22
29839;BME280;18669;53.356;-1.464;2023-09-18T09:31:28;98662.16;;;25.34;72.74
29839;BME280;18669;53.356;-1.464;2023-09-18T09:34:24;98664.53;;;24.81;79.98
29839;BME280;18669;53.356;-1.464;2023-09-18T09:37:10;98659.28;;;25.36;73.23
29839;BME280;18669;53.356;-1.464;2023-09-18T09:39:55;98655.25;;;25.31;75.48
29839;BME280;18669;53.356;-1.464;2023-09-18T09:42:41;98654.34;;;25.79;75.38
29839;BME280;18669;53.356;-1.464;2023-09-18T09:45:32;98654.22;;;26.57;65.74
29839;BME280;18669;53.356;-1.464;2023-09-18T09:48:20;98657.78;;;27.18;61.98
29839;BME280;18669;53.356;-1.464;2023-09-18T09:51:05;98648.41;;;26.84;60.84
29839;BME280;18669;53.356;-1.464;2023-09-18T09:53:50;98660.88;;;26.85;61.15
29839;BME280;18669;53.356;-1.464;2023-09-18T09:56:47;98658.00;;;27.16;54.64
29839;BME280;18669;53.356;-1.464;2023-09-18T09:59:35;98656.44;;;26.92;56.63
29839;BME280;18669;53.356;-1.464;2023-09-18T10:02:20;98649.38;;;26.38;58.08
29839;BME280;18669;53.356;-1.464;2023-09-18T10:05:07;98644.38;;;27.24;60.28
29839;BME280;18669;53.356;-1.464;2023-09-18T10:07:52;98657.28;;;26.54;58.72
29839;BME280;18669;53.356;-1.464;2023-09-18T10:10:40;98659.75;;;25.08;63.24
29839;BME280;18669;53.356;-1.464;2023-09-18T10:13:32;98655.66;;;24.47;70.84
29839;BME280;18669;53.356;-1.464;2023-09-18T10:16:22;98660.84;;;23.91;85.60
29839;BME280;18669;53.356;-1.464;2023-09-18T10:19:31;98665.78;;;23.36;90.20
29839;BME280;18669;53.356;-1.464;2023-09-18T10:25:18;98657.44;;;22.07;100.00
29839;BME280;18669;53.356;-1.464;2023-09-18T10:28:04;98661.44;;;21.57;100.00
29839;BME280;18669;53.356;-1.464;2023-09-18T10:30:52;98672.16;;;21.01;100.00
29839;BME280;18669;53.356;-1.464;2023-09-18T10:33:37;98675.44;;;20.75;100.00
29839;BME280;18669;53.356;-1.464;2023-09-18T10:36:24;98681.84;;;20.45;100.00
29839;BME280;18669;53.356;-1.464;2023-09-18T10:39:09;98676.34;;;20.46;100.00
29839;BME280;18669;53.356;-1.464;2023-09-18T10:42:00;98684.81;;;20.22;100.00
29839;BME280;18669;53.356;-1.464;2023-09-18T10:44:46;98686.47;;;19.83;100.00
29839;BME280;18669;53.356;-1.464;2023-09-18T10:47:32;98702.56;;;19.62;100.00
29839;BME280;18669;53.356;-1.464;2023-09-18T10:50:25;98695.00;;;19.58;100.00
29839;BME280;18669;53.356;-1.464;2023-09-18T10:53:10;98703.88;;;19.27;100.00
29839;BME280;18669;53.356;-1.464;2023-09-18T10:55:55;98700.38;;;19.17;100.00
29839;BME280;18669;53.356;-1.464;2023-09-18T10:58:41;98704.41;;;19.11;100.00
29839;BME280;18669;53.356;-1.464;2023-09-18T11:01:27;98726.44;;;18.92;100.00
29839;BME280;18669;53.356;-1.464;2023-09-18T11:04:13;98719.63;;;18.57;100.00
29839;BME280;18669;53.356;-1.464;2023-09-18T11:09:44;98722.31;;;18.03;100.00
29839;BME280;18669;53.356;-1.464;2023-09-18T11:12:43;98750.53;;;17.83;100.00
29839;BME280;18669;53.356;-1.464;2023-09-18T11:15:32;98781.75;;;17.47;100.00
29839;BME280;18669;53.356;-1.464;2023-09-18T11:18:19;98790.13;;;16.83;100.00
29839;BME280;18669;53.356;-1.464;2023-09-18T11:21:07;98784.25;;;16.55;100.00
29839;BME280;18669;53.356;-1.464;2023-09-18T11:24:03;98785.97;;;16.08;100.00
29839;BME280;18669;53.356;-1.464;2023-09-18T11:26:50;98783.25;;;15.46;100.00
29839;BME280;18669;53.356;-1.464;2023-09-18T11:29:36;98795.44;;;14.84;100.00
29839;BME280;18669;53.356;-1.464;2023-09-18T11:32:37;98806.69;;;14.47;100.00
29839;BME280;18669;53.356;-1.464;2023-09-18T11:35:25;98798.84;;;14.18;100.00
29839;BME280;18669;53.356;-1.464;2023-09-18T11:38:10;98798.66;;;14.22;100.00
29839;BME280;18669;53.356;-1.464;2023-09-18T11:40:55;98791.94;;;13.88;100.00
29839;BME280;18669;53.356;-1.464;2023-09-18T11:43:41;98771.81;;;13.73;100.00
29839;BME280;18669;53.356;-1.464;2023-09-18T11:46:26;98772.13;;;13.81;100.00
29839;BME280;18669;53.356;-1.464;2023-09-18T11:49:14;98774.81;;;13.67;100.00
29839;BME280;18669;53.356;-1.464;2023-09-18T11:52:01;98769.16;;;14.00;100.00
29839;BME280;18669;53.356;-1.464;2023-09-18T11:54:48;98763.88;;;14.00;100.00
29839;BME280;18669;53.356;-1.464;2023-09-18T11:57:37;98756.81;;;14.01;100.00
29839;BME280;18669;53.356;-1.464;2023-09-18T12:00:22;98760.19;;;14.03;100.00
29839;BME280;18669;53.356;-1.464;2023-09-18T12:03:23;98763.38;;;14.08;100.00
29839;BME280;18669;53.356;-1.464;2023-09-18T12:06:11;98753.22;;;14.02;100.00
29839;BME280;18669;53.356;-1.464;2023-09-18T12:08:58;98770.63;;;14.19;100.00
29839;BME280;18669;53.356;-1.464;2023-09-18T12:11:43;98763.59;;;14.45;100.00
29839;BME280;18669;53.356;-1.464;2023-09-18T12:14:33;98764.09;;;14.78;100.00
29839;BME280;18669;53.356;-1.464;2023-09-18T12:17:18;98769.50;;;14.76;100.00
29839;BME280;18669;53.356;-1.464;2023-09-18T12:20:04;98777.75;;;14.85;100.00
29839;BME280;18669;53.356;-1.464;2023-09-18T12:22:50;98778.53;;;15.00;100.00
29839;BME280;18669;53.356;-1.464;2023-09-18T12:25:35;98770.34;;;15.03;100.00
29839;BME280;18669;53.356;-1.464;2023-09-18T12:28:20;98774.28;;;15.10;100.00
29839;BME280;18669;53.356;-1.464;2023-09-18T12:31:10;98785.16;;;15.31;100.00
29839;BME280;18669;53.356;-1.464;2023-09-18T12:33:54;98781.25;;;15.24;100.00
29839;BME280;18669;53.356;-1.464;2023-09-18T12:36:42;98794.19;;;15.42;100.00
29839;BME280;18669;53.356;-1.464;2023-09-18T12:39:32;98794.03;;;15.56;100.00
29839;BME280;18669;53.356;-1.464;2023-09-18T12:42:20;98778.75;;;15.73;100.00
29839;BME280;18669;53.356;-1.464;2023-09-18T12:45:08;98782.03;;;15.89;100.00
29839;BME280;18669;53.356;-1.464;2023-09-18T12:47:55;98777.72;;;16.24;100.00
29839;BME280;18669;53.356;-1.464;2023-09-18T12:50:41;98771.63;;;16.35;100.00
29839;BME280;18669;53.356;-1.464;2023-09-18T12:53:25;98767.84;;;16.62;100.00
29839;BME280;18669;53.356;-1.464;2023-09-18T12:56:12;98767.47;;;17.02;100.00
29839;BME280;18669;53.356;-1.464;2023-09-18T12:58:58;98761.19;;;17.03;100.00
29839;BME280;18669;53.356;-1.464;2023-09-18T13:01:48;98758.28;;;16.95;100.00
29839;BME280;18669;53.356;-1.464;2023-09-18T13:04:34;98765.09;;;17.22;100.00
29839;BME280;18669;53.356;-1.464;2023-09-18T13:07:23;98770.16;;;17.25;100.00
29839;BME280;18669;53.356;-1.464;2023-09-18T13:10:09;98771.13;;;17.35;100.00
29839;BME280;18669;53.356;-1.464;2023-09-18T13:12:54;98772.94;;;17.35;100.00
29839;BME280;18669;53.356;-1.464;2023-09-18T13:15:40;98763.75;;;17.50;100.00
29839;BME280;18669;53.356;-1.464;2023-09-18T13:18:25;98766.88;;;17.55;100.00
29839;BME280;18669;53.356;-1.464;2023-09-18T13:21:13;98772.78;;;17.82;100.00
29839;BME280;18669;53.356;-1.464;2023-09-18T13:24:05;98769.72;;;17.86;100.00
29839;BME280;18669;53.356;-1.464;2023-09-18T13:26:53;98782.69;;;17.80;100.00
29839;BME280;18669;53.356;-1.464;2023-09-18T13:29:38;98783.56;;;17.69;100.00
29839;BME280;18669;53.356;-1.464;2023-09-18T13:32:23;98778.94;;;17.82;100.00
29839;BME280;18669;53.356;-1.464;2023-09-18T13:35:08;98801.16;;;17.93;100.00
29839;BME280;18669;53.356;-1.464;2023-09-18T13:37:53;98807.59;;;17.67;100.00
29839;BME280;18669;53.356;-1.464;2023-09-18T13:40:39;98820.63;;;17.13;100.00
29839;BME280;18669;53.356;-1.464;2023-09-18T13:43:24;98822.81;;;16.84;100.00
29839;BME280;18669;53.356;-1.464;2023-09-18T13:46:09;98833.84;;;16.91;100.00
29839;BME280;18669;53.356;-1.464;2023-09-18T13:48:55;98842.88;;;16.88;100.00
29839;BME280;18669;53.356;-1.464;2023-09-18T13:51:39;98844.66;;;16.76;100.00
29839;BME280;18669;53.356;-1.464;2023-09-18T13:54:24;98842.06;;;16.88;100.00
29839;BME280;18669;53.356;-1.464;2023-09-18T13:57:09;98852.03;;;17.08;100.00
29839;BME280;18669;53.356;-1.464;2023-09-18T13:59:54;98853.13;;;17.06;100.00
29839;BME280;18669;53.356;-1.464;2023-09-18T14:02:39;98837.50;;;17.01;100.00
29839;BME280;18669;53.356;-1.464;2023-09-18T14:05:25;98854.38;;;16.89;100.00
29839;BME280;18669;53.356;-1.464;2023-09-18T14:08:11;98850.94;;;16.75;100.00
29839;BME280;18669;53.356;-1.464;2023-09-18T14:10:56;98839.09;;;17.04;100.00
29839;BME280;18669;53.356;-1.464;2023-09-18T14:13:41;98847.09;;;17.26;100.00
29839;BME280;18669;53.356;-1.464;2023-09-18T14:16:27;98853.88;;;17.53;100.00
29839;BME280;18669;53.356;-1.464;2023-09-18T14:19:11;98858.03;;;17.80;100.00
29839;BME280;18669;53.356;-1.464;2023-09-18T14:21:57;98870.94;;;17.85;100.00
29839;BME280;18669;53.356;-1.464;2023-09-18T14:24:41;98866.94;;;17.90;100.00